Latest Weather Observations for Eucla

IDW60801

Issued at 5:35 pm WST Monday 20 October 2014 (issued every 30 minutes, with the page automatically refreshed every 10 minutes)

About weather observations | Map of weather stations | Latest weather observations for WA | Other Formats
Station Details ID: 011003 Name: EUCLA Lat: -31.68 Lon: 128.90 Height: 93.1 m
Data from the previous 72 hours. | See also: Recent months at Eucla
Date/Time
WST
Temp
°C
App
Temp
°C
Dew
Point
Rel
Hum
%
Delta-T
°C
Wind Press
QNH
hPa
Press
MSL
hPa
Rain
since 9 am
mm
Dir
 
Spd
km/h
Gust
km/h
Spd
kts
Gust
kts
20/05:30pm 26.6 25.6 11.1 38 8.8 E 7 11 4 6 1013.1 1012.9 2.0
20/05:00pm 26.9 26.4 12.2 40 8.5 SW 6 11 3 6 1012.8 1012.6 2.0
20/04:30pm 30.8 28.0 8.5 25 12.4 NNW 13 22 7 12 1012.7 1012.5 2.0
20/04:00pm 32.0 28.0 8.3 23 13.2 NNW 19 28 10 15 1012.6 1012.4 2.0
20/03:30pm 32.5 29.1 9.3 24 13.2 N 17 26 9 14 1012.4 1012.2 2.0
20/03:00pm 31.8 28.4 10.5 27 12.3 NNW 19 26 10 14 1012.1 1011.9 2.0
20/02:30pm 31.8 29.1 10.5 27 12.3 NNW 15 26 8 14 1012.4 1012.2 2.0
20/02:00pm 31.3 28.4 11.1 29 11.7 NNW 17 26 9 14 1012.8 1012.6 2.0
20/01:30pm 29.5 26.6 11.1 32 10.6 N 17 26 9 14 1013.2 1013.0 2.0
20/01:00pm 30.3 28.5 12.2 33 10.7 N 13 19 7 10 1013.3 1013.1 2.0
20/12:30pm 29.3 27.8 11.8 34 10.2 N 11 19 6 10 1013.6 1013.4 2.0
20/12:00pm 28.9 28.1 12.8 37 9.5 NW 9 15 5 8 1014.0 1013.8 2.0
20/11:30am 26.1 27.4 18.5 63 4.9 WNW 9 11 5 6 1014.2 1014.0 2.0
20/11:00am 22.5 22.8 17.0 71 3.4 NW 11 15 6 8 1014.8 1014.6 1.8
20/10:30am 18.9 19.5 16.9 88 1.2 N 9 11 5 6 1015.8 1015.7 1.8
20/10:00am 17.3 15.9 15.6 90 1.0 NW 17 24 9 13 1017.6 1017.5 1.8
20/09:57am 17.3 15.5 15.6 90 1.0 NW 19 24 10 13 1017.9 1017.8 1.8
20/09:30am 17.7 13.8 15.5 87 1.3 N 30 52 16 28 1020.0 1019.8 0.6
20/09:26am 17.7 14.1 15.3 86 1.4 N 28 52 15 28 1019.4 1019.2 0.2
20/09:21am 17.5 15.1 15.3 87 1.3 N 22 32 12 17 1018.5 1018.4 0.2
20/09:00am 18.0 16.0 14.9 82 1.8 NE 19 30 10 16 1016.3 1016.2 0.0
20/08:30am 17.6 17.1 15.0 85 1.5 ESE 11 15 6 8 1015.5 1015.4 0.0
20/08:00am 17.1 16.9 15.6 91 0.9 S 11 30 6 16 1014.9 1014.7 0.0
20/07:54am 16.7 15.2 15.4 92 0.8 SSE 17 30 9 16 1014.9 1014.7 0.0
20/07:48am 16.5 14.9 14.9 90 0.9 ESE 17 33 9 18 1012.8 1012.6 0.0
20/07:30am 16.6 16.1 14.8 89 1.0 SE 11 19 6 10 1015.2 1015.1 0.0
20/07:00am 16.6 15.7 14.8 89 1.0 SE 13 20 7 11 1016.1 1016.0 0.0
20/06:30am 16.7 16.2 14.9 89 1.0 S 11 15 6 8 1016.4 1016.3 0.0
20/06:00am 16.0 15.8 14.7 92 0.7 SW 9 11 5 6 1017.2 1017.1 0.0
20/05:30am 15.8 15.6 14.7 93 0.6 W 9 15 5 8 1017.6 1017.5 0.0
20/05:00am 15.1 14.3 14.0 93 0.6 WSW 11 15 6 8 1017.9 1017.8 0.0
20/04:30am 15.6 15.0 14.5 93 0.6 SW 11 15 6 8 1016.2 1016.1 0.0
20/04:00am 15.8 15.2 14.5 92 0.7 S 11 15 6 8 1015.6 1015.5 0.0
20/03:30am 15.8 14.1 14.7 93 0.6 SSE 17 26 9 14 1014.8 1014.6 0.0
20/03:00am 15.8 13.9 14.3 91 0.9 S 17 24 9 13 1014.9 1014.7 0.0
20/02:30am 15.9 14.1 14.4 91 0.9 S 17 24 9 13 1015.2 1015.1 0.0
20/02:00am 16.2 13.9 14.6 90 0.9 SW 20 28 11 15 1015.9 1015.8 0.0
20/01:30am 16.4 14.2 14.9 91 0.9 WSW 20 32 11 17 1016.3 1016.2 0.0
20/01:00am 16.2 14.9 14.9 92 0.8 S 15 22 8 12 1014.8 1014.6 0.0
20/12:30am 16.3 15.1 15.0 92 0.8 SSE 15 20 8 11 1014.3 1014.1 0.0
20/12:00am 16.3 15.5 15.0 92 0.8 SE 13 20 7 11 1014.5 1014.3 0.0
 
Date/Time
WST
Temp
°C
App
Temp
°C
Dew
Point
Rel
Hum
%
Delta-T
°C
Wind Press
QNH
hPa
Press
MSL
hPa
Rain
since 9 am
mm
Dir
 
Spd
km/h
Gust
km/h
Spd
kts
Gust
kts
19/11:30pm 16.3 15.0 14.8 91 0.9 ESE 15 26 8 14 1015.0 1014.8 0.0
19/11:00pm 16.3 14.7 15.0 92 0.8 ESE 17 28 9 15 1015.5 1015.4 0.0
19/10:30pm 16.3 13.8 15.2 93 0.6 E 22 39 12 21 1014.9 1014.7 0.0
19/10:00pm 16.2 12.9 15.1 93 0.6 E 26 37 14 20 1014.5 1014.3 0.0
19/09:30pm 16.3 12.6 15.0 92 0.8 ESE 28 43 15 23 1014.8 1014.6 0.0
19/09:00pm 16.4 14.5 15.1 92 0.8 ESE 19 33 10 18 1016.3 1016.2 0.0
19/08:30pm 16.5 15.0 15.2 92 0.8 ESE 17 28 9 15 1016.9 1016.8 0.0
19/08:00pm 16.4 14.3 15.1 92 0.8 ESE 20 33 11 18 1016.0 1015.9 0.0
19/07:30pm 16.5 14.9 15.0 91 0.9 ESE 17 32 9 17 1016.3 1016.2 0.0
19/07:00pm 16.4 13.8 14.8 90 0.9 ESE 22 43 12 23 1015.9 1015.8 0.0
19/06:30pm 16.4 14.7 14.8 90 0.9 ESE 17 32 9 17 1016.5 1016.4 0.0
19/06:00pm 16.4 13.7 14.6 89 1.0 ESE 22 35 12 19 1015.6 1015.5 0.0
19/05:30pm 16.5 13.0 14.5 88 1.1 ESE 26 37 14 20 1015.7 1015.6 0.0
19/05:00pm 16.7 13.6 14.5 87 1.3 ESE 24 35 13 19 1016.2 1016.1 0.0
19/04:30pm 16.9 14.2 14.7 87 1.3 ESE 22 33 12 18 1016.2 1016.1 0.0
19/04:00pm 17.0 14.3 14.6 86 1.4 ESE 22 33 12 18 1015.8 1015.7 0.0
19/03:30pm 17.1 14.0 14.6 85 1.4 ESE 24 39 13 21 1015.7 1015.6 0.0
19/03:00pm 17.8 14.8 14.7 82 1.8 SE 24 43 13 23 1015.9 1015.8 0.0
19/02:30pm 17.8 15.1 14.5 81 1.9 SE 22 33 12 18 1015.8 1015.7 0.0
19/02:00pm 17.9 15.7 14.8 82 1.8 SE 20 33 11 18 1016.1 1016.0 0.0
19/01:30pm 18.4 15.4 14.7 79 2.2 SE 24 33 13 18 1016.6 1016.5 0.0
19/01:00pm 18.3 15.3 14.8 80 2.0 SE 24 33 13 18 1016.4 1016.3 0.0
19/12:30pm 18.4 16.1 14.7 79 2.2 SE 20 33 11 18 1016.8 1016.7 0.0
19/12:00pm 19.3 17.1 14.8 75 2.6 SE 20 33 11 18 1017.1 1017.0 0.0
19/11:30am 19.6 16.6 14.8 74 2.8 SSE 24 33 13 18 1017.6 1017.5 0.0
19/11:00am 19.3 17.1 14.8 75 2.6 SE 20 39 11 21 1017.2 1017.1 0.0
19/10:30am 19.1 17.0 14.8 76 2.5 SE 19 32 10 17 1017.4 1017.3 0.0
19/10:00am 19.0 16.8 14.9 77 2.4 SE 20 32 11 17 1017.9 1017.8 0.0
19/09:30am 18.9 16.2 14.6 76 2.5 ESE 22 39 12 21 1017.8 1017.7 0.0
19/09:00am 19.4 16.7 14.6 74 2.8 ESE 22 37 12 20 1018.0 1017.9 0.0
19/08:30am 18.5 15.5 14.8 79 2.2 ESE 24 37 13 20 1017.8 1017.7 0.0
19/08:00am 18.6 15.2 14.7 78 2.3 ESE 26 37 14 20 1017.8 1017.7 0.0
19/07:30am 18.0 14.6 14.7 81 1.9 ESE 26 39 14 21 1017.9 1017.8 0.0
19/07:00am 17.7 14.4 15.0 84 1.6 SE 26 35 14 19 1017.8 1017.7 0.0
19/06:30am 17.5 14.5 14.8 84 1.6 SE 24 33 13 18 1017.7 1017.6 0.0
19/06:00am 16.8 14.6 14.8 88 1.2 SE 20 32 11 17 1017.3 1017.2 0.0
19/05:30am 16.6 12.8 14.8 89 1.0 SE 28 35 15 19 1017.0 1016.9 0.0
19/05:00am 16.2 12.8 14.7 91 0.9 SE 26 37 14 20 1017.0 1016.9 0.0
19/04:30am 16.3 13.4 15.0 92 0.8 SSE 24 35 13 19 1016.5 1016.4 0.0
19/04:00am 16.5 12.8 15.0 91 0.9 SSE 28 39 15 21 1015.9 1015.8 0.0
19/03:46am 16.5 12.9 15.2 92 0.8 S 28 46 15 25 1015.7 1015.6 0.0
19/03:30am 16.5 13.2 15.0 91 0.9 S 26 35 14 19 1015.6 1015.5 0.0
19/03:00am 16.7 13.2 14.5 87 1.3 S 26 41 14 22 1015.4 1015.3 0.0
19/02:30am 16.0 13.8 15.0 94 0.6 S 20 35 11 19 1015.2 1015.1 0.0
19/02:00am 15.7 14.4 14.9 95 0.5 S 15 20 8 11 1014.2 1014.0 0.0
19/01:30am 15.5 14.2 14.7 95 0.5 S 15 20 8 11 1014.2 1014.0 0.0
19/01:00am 15.0 13.7 13.7 92 0.7 S 13 17 7 9 1014.1 1013.9 0.0
19/12:30am 16.1 15.1 14.5 90 0.9 ESE 13 17 7 9 1013.9 1013.7 0.0
19/12:00am 16.5 15.2 12.5 77 2.2 ESE 11 19 6 10 1014.3 1014.1 0.0
 
Date/Time
WST
Temp
°C
App
Temp
°C
Dew
Point
Rel
Hum
%
Delta-T
°C
Wind Press
QNH
hPa
Press
MSL
hPa
Rain
since 9 am
mm
Dir
 
Spd
km/h
Gust
km/h
Spd
kts
Gust
kts
18/11:30pm 17.6 16.0 11.6 68 3.3 E 11 19 6 10 1014.7 1014.5 0.0
18/11:00pm 17.9 15.6 11.7 67 3.4 ENE 15 22 8 12 1014.7 1014.5 0.0
18/10:30pm 18.1 15.1 11.9 67 3.4 ENE 19 30 10 16 1014.9 1014.7 0.0
18/10:00pm 18.0 15.5 12.2 69 3.2 ENE 17 26 9 14 1015.1 1014.9 0.0
18/09:30pm 18.0 14.7 12.7 71 3.0 ENE 22 35 12 19 1014.9 1014.7 0.0
18/09:00pm 17.9 15.0 13.0 73 2.8 E 20 33 11 18 1015.5 1015.4 0.0
18/08:30pm 18.1 15.3 13.2 73 2.8 E 20 33 11 18 1015.7 1015.6 0.0
18/08:00pm 18.3 16.1 13.2 72 2.9 E 17 30 9 16 1015.9 1015.8 0.0
18/07:30pm 18.3 15.6 13.4 73 2.8 E 20 37 11 20 1015.6 1015.5 0.0
18/07:00pm 18.2 15.8 13.7 75 2.6 E 19 28 10 15 1015.5 1015.4 0.0
18/06:30pm 18.1 15.7 13.8 76 2.5 E 19 32 10 17 1015.5 1015.4 0.0
18/06:00pm 18.2 16.1 13.7 75 2.6 E 17 32 9 17 1015.7 1015.6 0.0
18/05:30pm 18.3 15.9 13.8 75 2.6 E 19 28 10 15 1015.0 1014.8 0.0
18/05:00pm 18.5 17.0 14.2 76 2.5 ESE 15 26 8 14 1015.1 1014.9 0.0
18/04:30pm 18.9 17.4 14.2 74 2.7 SE 15 19 8 10 1015.4 1015.3 0.0
18/04:00pm 19.2 17.6 14.0 72 3.0 SE 15 24 8 13 1015.1 1014.9 0.0
18/03:30pm 19.4 18.0 14.4 73 2.9 SSE 15 20 8 11 1015.6 1015.5 0.0
18/03:00pm 20.3 18.8 14.2 68 3.5 SSE 15 24 8 13 1015.6 1015.5 0.0
18/02:30pm 20.1 18.1 14.0 68 3.5 SSE 17 24 9 13 1015.0 1014.8 0.0
18/02:00pm 20.6 19.1 14.3 67 3.7 SSE 15 24 8 13 1015.7 1015.6 0.0
18/01:30pm 21.0 19.5 14.2 65 4.0 SSE 15 22 8 12 1015.8 1015.7 0.0
18/01:00pm 21.1 19.2 14.3 65 4.0 SSE 17 26 9 14 1015.9 1015.8 0.0
18/12:30pm 23.0 20.8 13.2 54 5.7 SSE 17 22 9 12 1016.1 1016.0 0.0
18/12:00pm 23.5 21.9 13.9 55 5.6 SE 15 20 8 11 1016.5 1016.4 0.0
18/11:30am 24.1 22.3 13.3 51 6.3 SSE 15 24 8 13 1016.7 1016.6 0.0
18/11:00am 22.4 20.4 12.6 54 5.6 SSE 15 20 8 11 1017.0 1016.9 0.0
18/10:30am 24.2 22.4 12.2 47 6.9 SSE 13 20 7 11 1017.2 1017.1 0.0
18/10:00am 24.1 22.4 12.4 48 6.7 SSE 13 19 7 10 1017.5 1017.4 0.0
18/09:30am 23.4 21.8 12.7 51 6.2 SSE 13 17 7 9 1017.8 1017.7 0.0
18/09:00am 23.6 22.0 12.9 51 6.2 SSE 13 19 7 10 1017.8 1017.7 0.6
18/08:30am 26.0 24.8 12.8 44 7.7 SSE 11 17 6 9 1017.8 1017.7 0.6
18/08:00am 25.1 23.9 12.7 46 7.2 NE 11 17 6 9 1017.8 1017.7 0.4
18/07:30am 23.3 21.6 12.3 50 6.3 NE 13 17 7 9 1017.7 1017.6 0.4
18/07:00am 21.9 20.2 12.5 55 5.3 NNE 13 24 7 13 1017.6 1017.5 0.4
18/06:30am 20.0 18.3 12.5 62 4.2 N 13 19 7 10 1017.7 1017.6 0.4
18/06:00am 18.5 18.1 12.3 67 3.5 W 6 9 3 5 1018.1 1018.0 0.4
18/05:30am 16.9 15.4 11.8 72 2.8 N 11 15 6 8 1017.9 1017.8 0.4
18/05:00am 16.4 16.1 11.6 73 2.6 W 4 7 2 4 1017.6 1017.5 0.4
18/04:30am 16.8 15.9 11.5 71 2.9 W 7 11 4 6 1016.7 1016.6 0.4
18/04:00am 17.1 14.8 11.6 70 3.0 NNE 15 22 8 12 1015.6 1015.5 0.4
18/03:30am 17.0 15.1 11.7 71 2.9 NNE 13 17 7 9 1015.5 1015.4 0.4
18/03:00am 16.8 14.9 11.7 72 2.8 NNE 13 15 7 8 1015.4 1015.3 0.4
18/02:30am 17.4 16.7 11.9 70 3.0 N 7 11 4 6 1015.3 1015.2 0.4
18/02:00am 17.8 16.0 12.0 69 3.2 NE 13 19 7 10 1014.7 1014.5 0.4
18/01:30am 18.1 16.4 12.3 69 3.2 NE 13 19 7 10 1014.7 1014.5 0.4
18/01:00am 17.8 16.9 12.5 71 3.0 NE 9 11 5 6 1015.0 1014.8 0.4
18/12:30am 17.8 17.4 12.5 71 3.0 NE 6 11 3 6 1015.3 1015.2 0.4
18/12:00am 18.2 17.7 12.6 70 3.1 E 7 9 4 5 1015.4 1015.3 0.4
 
Date/Time
WST
Temp
°C
App
Temp
°C
Dew
Point
Rel
Hum
%
Delta-T
°C
Wind Press
QNH
hPa
Press
MSL
hPa
Rain
since 9 am
mm
Dir
 
Spd
km/h
Gust
km/h
Spd
kts
Gust
kts
17/11:30pm 18.7 17.8 12.7 68 3.4 SSE 9 13 5 7 1015.6 1015.5 0.4
17/11:00pm 18.4 17.6 12.8 70 3.1 SE 9 13 5 7 1015.3 1015.2 0.4
17/10:30pm 18.6 17.4 12.8 69 3.3 SSE 11 17 6 9 1015.1 1014.9 0.4
17/10:00pm 18.6 17.9 13.2 71 3.1 SE 9 15 5 8 1015.8 1015.7 0.4
17/09:30pm 18.6 18.0 13.5 72 2.9 S 9 15 5 8 1016.5 1016.4 0.4
17/09:00pm 19.4 18.3 13.1 67 3.6 SSW 11 17 6 9 1017.5 1017.4 0.4
17/08:30pm 19.1 18.2 13.7 71 3.1 S 11 15 6 8 1017.2 1017.1 0.4
17/08:00pm 19.3 18.0 13.7 70 3.2 SW 13 19 7 10 1018.3 1018.2 0.4
17/07:30pm 19.7 17.0 13.6 68 3.5 WSW 20 33 11 18 1018.2 1018.1 0.4
17/07:00pm 19.9 17.4 13.6 67 3.6 WSW 19 33 10 18 1017.2 1017.1 0.4
17/06:30pm 20.2 15.0 12.9 63 4.2 SW 32 50 17 27 1017.0 1016.9 0.4
17/06:16pm 21.2 16.7 12.6 58 4.9 WSW 28 48 15 26 1016.6 1016.5 0.4
17/06:00pm 20.7 17.2 13.4 63 4.2 SW 24 39 13 21 1016.0 1015.9 0.4

Other Formats:

Comma delimited format used in spreadsheet applications
http://www.bom.gov.au/fwo/IDW60801/IDW60801.94647.axf

JavaScript Object Notation format (JSON) in row-major order
http://www.bom.gov.au/fwo/IDW60801/IDW60801.94647.json